sensor_id;sensor_type;location;lat;lon;timestamp;temperature;humidity
16106;DHT22;8157;51.480;6.624;2023-05-29T00:01:45;16.60;58.10
16106;DHT22;8157;51.480;6.624;2023-05-29T00:04:12;16.50;58.10
16106;DHT22;8157;51.480;6.624;2023-05-29T00:06:40;16.50;58.20
16106;DHT22;8157;51.480;6.624;2023-05-29T00:09:07;16.50;58.30
16106;DHT22;8157;51.480;6.624;2023-05-29T00:11:36;16.50;58.40
16106;DHT22;8157;51.480;6.624;2023-05-29T00:14:04;16.40;58.60
16106;DHT22;8157;51.480;6.624;2023-05-29T00:16:31;16.40;58.70
16106;DHT22;8157;51.480;6.624;2023-05-29T00:19:00;16.30;58.70
16106;DHT22;8157;51.480;6.624;2023-05-29T00:21:27;16.30;58.80
16106;DHT22;8157;51.480;6.624;2023-05-29T00:23:54;16.30;59.10
16106;DHT22;8157;51.480;6.624;2023-05-29T00:26:21;16.30;59.20
16106;DHT22;8157;51.480;6.624;2023-05-29T00:28:54;16.20;59.10
16106;DHT22;8157;51.480;6.624;2023-05-29T00:31:22;16.20;59.40
16106;DHT22;8157;51.480;6.624;2023-05-29T00:33:50;16.20;59.60
16106;DHT22;8157;51.480;6.624;2023-05-29T00:36:17;16.20;59.70
16106;DHT22;8157;51.480;6.624;2023-05-29T00:38:45;16.20;59.90
16106;DHT22;8157;51.480;6.624;2023-05-29T00:41:14;16.10;59.90
16106;DHT22;8157;51.480;6.624;2023-05-29T00:43:41;16.00;60.10
16106;DHT22;8157;51.480;6.624;2023-05-29T00:46:10;16.00;60.20
16106;DHT22;8157;51.480;6.624;2023-05-29T00:48:39;16.00;60.60
16106;DHT22;8157;51.480;6.624;2023-05-29T00:51:08;16.00;60.50
16106;DHT22;8157;51.480;6.624;2023-05-29T00:53:37;16.00;60.70
16106;DHT22;8157;51.480;6.624;2023-05-29T00:56:05;15.90;60.70
16106;DHT22;8157;51.480;6.624;2023-05-29T00:58:33;15.90;60.90
16106;DHT22;8157;51.480;6.624;2023-05-29T01:01:01;15.90;60.90
16106;DHT22;8157;51.480;6.624;2023-05-29T01:03:30;15.90;61.10
16106;DHT22;8157;51.480;6.624;2023-05-29T01:05:58;15.80;61.40
16106;DHT22;8157;51.480;6.624;2023-05-29T01:08:26;15.80;61.30
16106;DHT22;8157;51.480;6.624;2023-05-29T01:10:59;15.80;61.30
16106;DHT22;8157;51.480;6.624;2023-05-29T01:13:30;15.70;61.50
16106;DHT22;8157;51.480;6.624;2023-05-29T01:16:03;15.70;61.30
16106;DHT22;8157;51.480;6.624;2023-05-29T01:18:39;15.60;61.40
16106;DHT22;8157;51.480;6.624;2023-05-29T01:21:13;15.60;61.50
16106;DHT22;8157;51.480;6.624;2023-05-29T01:26:53;15.50;61.50
16106;DHT22;8157;51.480;6.624;2023-05-29T01:29:24;15.60;61.90
16106;DHT22;8157;51.480;6.624;2023-05-29T01:31:54;15.50;61.10
16106;DHT22;8157;51.480;6.624;2023-05-29T01:34:21;15.80;61.60
16106;DHT22;8157;51.480;6.624;2023-05-29T01:36:49;15.40;61.60
16106;DHT22;8157;51.480;6.624;2023-05-29T01:39:17;15.30;62.00
16106;DHT22;8157;51.480;6.624;2023-05-29T01:41:45;15.30;62.10
16106;DHT22;8157;51.480;6.624;2023-05-29T01:44:15;15.30;62.20
16106;DHT22;8157;51.480;6.624;2023-05-29T01:46:46;15.30;63.20
16106;DHT22;8157;51.480;6.624;2023-05-29T01:49:15;15.20;62.40
16106;DHT22;8157;51.480;6.624;2023-05-29T01:51:42;15.90;63.00
16106;DHT22;8157;51.480;6.624;2023-05-29T01:54:10;15.40;62.50
16106;DHT22;8157;51.480;6.624;2023-05-29T01:56:38;15.10;62.20
16106;DHT22;8157;51.480;6.624;2023-05-29T01:59:06;16.30;63.00
16106;DHT22;8157;51.480;6.624;2023-05-29T02:01:38;15.20;62.20
16106;DHT22;8157;51.480;6.624;2023-05-29T02:04:06;15.00;62.30
16106;DHT22;8157;51.480;6.624;2023-05-29T02:06:33;15.00;62.10
16106;DHT22;8157;51.480;6.624;2023-05-29T02:09:00;14.90;62.10
16106;DHT22;8157;51.480;6.624;2023-05-29T02:11:28;16.00;62.80
16106;DHT22;8157;51.480;6.624;2023-05-29T02:13:55;14.40;62.00
16106;DHT22;8157;51.480;6.624;2023-05-29T02:16:22;14.70;62.20
16106;DHT22;8157;51.480;6.624;2023-05-29T02:18:51;14.70;62.30
16106;DHT22;8157;51.480;6.624;2023-05-29T02:21:18;15.70;63.10
16106;DHT22;8157;51.480;6.624;2023-05-29T02:23:46;14.60;62.50
16106;DHT22;8157;51.480;6.624;2023-05-29T02:26:13;15.50;63.20
16106;DHT22;8157;51.480;6.624;2023-05-29T02:28:41;14.60;62.80
16106;DHT22;8157;51.480;6.624;2023-05-29T02:31:08;14.50;62.80
16106;DHT22;8157;51.480;6.624;2023-05-29T02:33:36;15.30;63.40
16106;DHT22;8157;51.480;6.624;2023-05-29T02:36:05;14.40;63.00
16106;DHT22;8157;51.480;6.624;2023-05-29T02:38:36;14.40;63.20
16106;DHT22;8157;51.480;6.624;2023-05-29T02:41:03;14.80;63.30
16106;DHT22;8157;51.480;6.624;2023-05-29T02:43:29;14.30;63.20
16106;DHT22;8157;51.480;6.624;2023-05-29T02:45:57;15.30;64.00
16106;DHT22;8157;51.480;6.624;2023-05-29T02:48:24;14.50;63.50
16106;DHT22;8157;51.480;6.624;2023-05-29T02:50:52;14.10;63.40
16106;DHT22;8157;51.480;6.624;2023-05-29T02:53:20;14.10;63.50
16106;DHT22;8157;51.480;6.624;2023-05-29T02:55:50;14.10;63.70
16106;DHT22;8157;51.480;6.624;2023-05-29T02:58:18;14.00;63.60
16106;DHT22;8157;51.480;6.624;2023-05-29T03:00:47;15.00;64.30
16106;DHT22;8157;51.480;6.624;2023-05-29T03:03:16;14.70;64.40
16106;DHT22;8157;51.480;6.624;2023-05-29T03:05:43;13.90;64.00
16106;DHT22;8157;51.480;6.624;2023-05-29T03:08:11;13.90;63.90
16106;DHT22;8157;51.480;6.624;2023-05-29T03:10:43;13.80;64.00
16106;DHT22;8157;51.480;6.624;2023-05-29T03:13:11;13.80;63.90
16106;DHT22;8157;51.480;6.624;2023-05-29T03:15:45;13.80;64.00
16106;DHT22;8157;51.480;6.624;2023-05-29T03:18:14;13.70;64.70
16106;DHT22;8157;51.480;6.624;2023-05-29T03:20:41;13.70;64.00
16106;DHT22;8157;51.480;6.624;2023-05-29T03:23:09;13.70;64.30
16106;DHT22;8157;51.480;6.624;2023-05-29T03:25:36;13.60;64.30
16106;DHT22;8157;51.480;6.624;2023-05-29T03:28:05;13.60;64.40
16106;DHT22;8157;51.480;6.624;2023-05-29T03:30:32;14.60;65.20
16106;DHT22;8157;51.480;6.624;2023-05-29T03:33:00;14.10;65.10
16106;DHT22;8157;51.480;6.624;2023-05-29T03:35:44;13.50;64.80
16106;DHT22;8157;51.480;6.624;2023-05-29T03:38:11;13.50;64.80
16106;DHT22;8157;51.480;6.624;2023-05-29T03:40:40;13.50;65.00
16106;DHT22;8157;51.480;6.624;2023-05-29T03:43:08;13.50;65.10
16106;DHT22;8157;51.480;6.624;2023-05-29T03:45:36;13.50;65.40
16106;DHT22;8157;51.480;6.624;2023-05-29T03:48:03;13.40;65.30
16106;DHT22;8157;51.480;6.624;2023-05-29T03:50:32;13.40;65.40
16106;DHT22;8157;51.480;6.624;2023-05-29T03:52:59;13.60;65.60
16106;DHT22;8157;51.480;6.624;2023-05-29T03:55:26;13.50;65.60
16106;DHT22;8157;51.480;6.624;2023-05-29T03:57:54;13.40;65.70
16106;DHT22;8157;51.480;6.624;2023-05-29T04:00:23;13.40;65.80
16106;DHT22;8157;51.480;6.624;2023-05-29T04:02:51;13.30;65.90
16106;DHT22;8157;51.480;6.624;2023-05-29T04:05:18;13.30;66.10
16106;DHT22;8157;51.480;6.624;2023-05-29T04:07:46;13.30;66.30
16106;DHT22;8157;51.480;6.624;2023-05-29T04:10:14;13.30;66.30
16106;DHT22;8157;51.480;6.624;2023-05-29T04:12:42;13.50;66.30
16106;DHT22;8157;51.480;6.624;2023-05-29T04:15:10;13.30;66.40
16106;DHT22;8157;51.480;6.624;2023-05-29T04:17:38;13.30;66.30
16106;DHT22;8157;51.480;6.624;2023-05-29T04:20:07;13.30;66.50
16106;DHT22;8157;51.480;6.624;2023-05-29T04:22:34;13.30;66.70
16106;DHT22;8157;51.480;6.624;2023-05-29T04:25:02;13.80;67.20
16106;DHT22;8157;51.480;6.624;2023-05-29T04:27:30;13.40;67.10
16106;DHT22;8157;51.480;6.624;2023-05-29T04:29:59;13.40;67.00
16106;DHT22;8157;51.480;6.624;2023-05-29T04:32:33;13.40;66.90
16106;DHT22;8157;51.480;6.624;2023-05-29T04:35:02;13.40;67.10
16106;DHT22;8157;51.480;6.624;2023-05-29T04:37:33;13.40;67.10
16106;DHT22;8157;51.480;6.624;2023-05-29T04:40:07;13.50;67.30
16106;DHT22;8157;51.480;6.624;2023-05-29T04:42:35;13.50;67.40
16106;DHT22;8157;51.480;6.624;2023-05-29T04:45:04;13.60;67.50
16106;DHT22;8157;51.480;6.624;2023-05-29T04:47:35;13.50;67.50
16106;DHT22;8157;51.480;6.624;2023-05-29T04:50:05;13.60;67.50
16106;DHT22;8157;51.480;6.624;2023-05-29T04:52:33;13.60;67.60
16106;DHT22;8157;51.480;6.624;2023-05-29T04:55:04;13.60;67.70
16106;DHT22;8157;51.480;6.624;2023-05-29T04:57:31;13.60;67.80
16106;DHT22;8157;51.480;6.624;2023-05-29T04:59:58;13.70;67.70
16106;DHT22;8157;51.480;6.624;2023-05-29T05:02:26;13.70;67.70
16106;DHT22;8157;51.480;6.624;2023-05-29T05:04:54;14.10;67.90
16106;DHT22;8157;51.480;6.624;2023-05-29T05:07:23;13.80;67.80
16106;DHT22;8157;51.480;6.624;2023-05-29T05:09:50;14.20;68.10
16106;DHT22;8157;51.480;6.624;2023-05-29T05:12:22;14.30;68.00
16106;DHT22;8157;51.480;6.624;2023-05-29T05:14:49;14.00;67.80
16106;DHT22;8157;51.480;6.624;2023-05-29T05:17:16;14.00;67.80
16106;DHT22;8157;51.480;6.624;2023-05-29T05:19:43;14.10;67.80
16106;DHT22;8157;51.480;6.624;2023-05-29T05:22:11;14.10;67.90
16106;DHT22;8157;51.480;6.624;2023-05-29T05:24:39;14.20;68.00
16106;DHT22;8157;51.480;6.624;2023-05-29T05:27:06;14.20;68.00
16106;DHT22;8157;51.480;6.624;2023-05-29T05:29:34;14.30;68.00
16106;DHT22;8157;51.480;6.624;2023-05-29T05:32:01;14.40;68.00
16106;DHT22;8157;51.480;6.624;2023-05-29T05:34:28;14.40;67.90
16106;DHT22;8157;51.480;6.624;2023-05-29T05:36:56;14.50;68.00
16106;DHT22;8157;51.480;6.624;2023-05-29T05:39:23;14.50;67.60
16106;DHT22;8157;51.480;6.624;2023-05-29T05:41:53;14.60;67.70
16106;DHT22;8157;51.480;6.624;2023-05-29T05:44:39;15.60;68.30
16106;DHT22;8157;51.480;6.624;2023-05-29T05:47:10;14.80;67.80
16106;DHT22;8157;51.480;6.624;2023-05-29T05:49:38;15.10;68.10
16106;DHT22;8157;51.480;6.624;2023-05-29T05:52:10;15.10;68.30
16106;DHT22;8157;51.480;6.624;2023-05-29T05:54:37;15.10;68.20
16106;DHT22;8157;51.480;6.624;2023-05-29T05:57:06;15.20;68.10
16106;DHT22;8157;51.480;6.624;2023-05-29T05:59:35;15.80;68.40
16106;DHT22;8157;51.480;6.624;2023-05-29T06:02:04;15.50;68.00
16106;DHT22;8157;51.480;6.624;2023-05-29T06:04:31;15.70;67.80
16106;DHT22;8157;51.480;6.624;2023-05-29T06:06:58;15.90;67.80
16106;DHT22;8157;51.480;6.624;2023-05-29T06:09:26;16.20;67.90
16106;DHT22;8157;51.480;6.624;2023-05-29T06:11:55;16.30;67.40
16106;DHT22;8157;51.480;6.624;2023-05-29T06:14:24;16.50;67.60
16106;DHT22;8157;51.480;6.624;2023-05-29T06:16:52;16.70;67.40
16106;DHT22;8157;51.480;6.624;2023-05-29T06:19:20;16.90;67.30
16106;DHT22;8157;51.480;6.624;2023-05-29T06:21:57;17.10;66.90
16106;DHT22;8157;51.480;6.624;2023-05-29T06:24:26;17.30;66.40
16106;DHT22;8157;51.480;6.624;2023-05-29T06:26:55;17.50;66.20
16106;DHT22;8157;51.480;6.624;2023-05-29T06:29:23;17.70;65.70
16106;DHT22;8157;51.480;6.624;2023-05-29T06:31:50;17.90;65.30
16106;DHT22;8157;51.480;6.624;2023-05-29T06:34:18;18.00;64.90
16106;DHT22;8157;51.480;6.624;2023-05-29T06:36:45;18.20;64.40
16106;DHT22;8157;51.480;6.624;2023-05-29T06:39:13;18.20;64.40
16106;DHT22;8157;51.480;6.624;2023-05-29T06:41:41;18.40;64.30
16106;DHT22;8157;51.480;6.624;2023-05-29T06:44:07;18.60;64.50
16106;DHT22;8157;51.480;6.624;2023-05-29T06:46:36;18.90;64.80
16106;DHT22;8157;51.480;6.624;2023-05-29T06:49:03;19.10;64.80
16106;DHT22;8157;51.480;6.624;2023-05-29T06:51:30;19.40;64.70
16106;DHT22;8157;51.480;6.624;2023-05-29T06:54:17;19.70;64.10
16106;DHT22;8157;51.480;6.624;2023-05-29T06:56:46;20.00;63.90
16106;DHT22;8157;51.480;6.624;2023-05-29T06:59:13;20.30;64.70
16106;DHT22;8157;51.480;6.624;2023-05-29T07:01:42;19.10;63.40
16106;DHT22;8157;51.480;6.624;2023-05-29T07:04:10;21.10;64.60
16106;DHT22;8157;51.480;6.624;2023-05-29T07:06:37;21.60;64.50
16106;DHT22;8157;51.480;6.624;2023-05-29T07:09:06;22.20;63.60
16106;DHT22;8157;51.480;6.624;2023-05-29T07:11:34;22.60;62.60
16106;DHT22;8157;51.480;6.624;2023-05-29T07:14:01;23.10;62.40
16106;DHT22;8157;51.480;6.624;2023-05-29T07:16:28;23.60;61.70
16106;DHT22;8157;51.480;6.624;2023-05-29T07:19:04;24.10;61.00
16106;DHT22;8157;51.480;6.624;2023-05-29T07:21:35;24.60;59.80
16106;DHT22;8157;51.480;6.624;2023-05-29T07:24:03;25.10;58.70
16106;DHT22;8157;51.480;6.624;2023-05-29T07:26:30;25.50;57.60
16106;DHT22;8157;51.480;6.624;2023-05-29T07:28:58;25.80;57.40
16106;DHT22;8157;51.480;6.624;2023-05-29T07:31:25;26.10;57.30
16106;DHT22;8157;51.480;6.624;2023-05-29T07:33:52;26.60;56.70
16106;DHT22;8157;51.480;6.624;2023-05-29T07:36:21;26.70;54.60
16106;DHT22;8157;51.480;6.624;2023-05-29T07:38:50;27.30;55.30
16106;DHT22;8157;51.480;6.624;2023-05-29T07:41:19;27.60;54.60
16106;DHT22;8157;51.480;6.624;2023-05-29T07:43:51;27.90;53.60
16106;DHT22;8157;51.480;6.624;2023-05-29T07:46:19;28.10;52.90
16106;DHT22;8157;51.480;6.624;2023-05-29T07:48:50;28.30;52.50
16106;DHT22;8157;51.480;6.624;2023-05-29T07:51:18;28.50;51.30
16106;DHT22;8157;51.480;6.624;2023-05-29T07:53:48;28.70;51.10
16106;DHT22;8157;51.480;6.624;2023-05-29T07:56:16;28.80;50.70
16106;DHT22;8157;51.480;6.624;2023-05-29T07:58:44;28.90;50.40
16106;DHT22;8157;51.480;6.624;2023-05-29T08:01:12;29.00;49.50
16106;DHT22;8157;51.480;6.624;2023-05-29T08:03:41;29.10;48.90
16106;DHT22;8157;51.480;6.624;2023-05-29T08:06:20;29.00;48.80
16106;DHT22;8157;51.480;6.624;2023-05-29T08:08:49;29.10;49.10
16106;DHT22;8157;51.480;6.624;2023-05-29T08:11:18;29.00;48.00
16106;DHT22;8157;51.480;6.624;2023-05-29T08:13:47;28.90;48.30
16106;DHT22;8157;51.480;6.624;2023-05-29T08:16:14;29.00;48.20
16106;DHT22;8157;51.480;6.624;2023-05-29T08:18:43;29.00;47.90
16106;DHT22;8157;51.480;6.624;2023-05-29T08:21:11;29.10;47.90
16106;DHT22;8157;51.480;6.624;2023-05-29T08:23:38;29.20;47.50
16106;DHT22;8157;51.480;6.624;2023-05-29T08:26:07;29.30;47.60
16106;DHT22;8157;51.480;6.624;2023-05-29T08:28:34;29.40;47.10
16106;DHT22;8157;51.480;6.624;2023-05-29T08:31:01;29.40;46.90
16106;DHT22;8157;51.480;6.624;2023-05-29T08:33:28;28.50;45.90
16106;DHT22;8157;51.480;6.624;2023-05-29T08:35:57;29.50;46.20
16106;DHT22;8157;51.480;6.624;2023-05-29T08:38:24;29.50;46.40
16106;DHT22;8157;51.480;6.624;2023-05-29T08:40:51;29.50;46.10
16106;DHT22;8157;51.480;6.624;2023-05-29T08:43:21;29.60;46.10
16106;DHT22;8157;51.480;6.624;2023-05-29T08:45:54;28.40;45.20
16106;DHT22;8157;51.480;6.624;2023-05-29T08:48:23;29.90;46.60
16106;DHT22;8157;51.480;6.624;2023-05-29T08:50:53;30.00;46.80
16106;DHT22;8157;51.480;6.624;2023-05-29T08:53:21;30.30;46.40
16106;DHT22;8157;51.480;6.624;2023-05-29T08:55:49;30.50;46.00
16106;DHT22;8157;51.480;6.624;2023-05-29T08:58:19;30.60;45.30
16106;DHT22;8157;51.480;6.624;2023-05-29T09:00:50;30.80;45.40
16106;DHT22;8157;51.480;6.624;2023-05-29T09:03:17;30.80;45.70
16106;DHT22;8157;51.480;6.624;2023-05-29T09:05:46;31.00;44.90
16106;DHT22;8157;51.480;6.624;2023-05-29T09:08:13;31.10;44.70
16106;DHT22;8157;51.480;6.624;2023-05-29T09:10:42;31.20;44.50
16106;DHT22;8157;51.480;6.624;2023-05-29T09:13:10;31.30;44.40
16106;DHT22;8157;51.480;6.624;2023-05-29T09:15:40;31.40;44.00
16106;DHT22;8157;51.480;6.624;2023-05-29T09:18:10;31.40;43.50
16106;DHT22;8157;51.480;6.624;2023-05-29T09:20:38;31.30;42.70
16106;DHT22;8157;51.480;6.624;2023-05-29T09:23:07;31.30;42.80
16106;DHT22;8157;51.480;6.624;2023-05-29T09:25:39;31.10;42.90
16106;DHT22;8157;51.480;6.624;2023-05-29T09:28:08;31.10;43.50
16106;DHT22;8157;51.480;6.624;2023-05-29T09:30:37;31.20;43.50
16106;DHT22;8157;51.480;6.624;2023-05-29T09:33:06;31.20;43.40
16106;DHT22;8157;51.480;6.624;2023-05-29T09:35:37;31.40;43.30
16106;DHT22;8157;51.480;6.624;2023-05-29T09:38:05;31.50;43.00
16106;DHT22;8157;51.480;6.624;2023-05-29T09:40:32;31.50;42.60
16106;DHT22;8157;51.480;6.624;2023-05-29T09:43:09;31.60;42.30
16106;DHT22;8157;51.480;6.624;2023-05-29T09:45:38;31.50;41.60
16106;DHT22;8157;51.480;6.624;2023-05-29T09:48:06;31.40;42.20
16106;DHT22;8157;51.480;6.624;2023-05-29T09:50:36;31.50;42.40
16106;DHT22;8157;51.480;6.624;2023-05-29T09:53:04;31.50;42.10
16106;DHT22;8157;51.480;6.624;2023-05-29T09:55:44;31.50;42.60
16106;DHT22;8157;51.480;6.624;2023-05-29T09:58:13;31.60;42.80
16106;DHT22;8157;51.480;6.624;2023-05-29T10:00:42;31.80;42.40
16106;DHT22;8157;51.480;6.624;2023-05-29T10:03:09;31.90;42.30
16106;DHT22;8157;51.480;6.624;2023-05-29T10:05:39;32.10;42.40
16106;DHT22;8157;51.480;6.624;2023-05-29T10:08:09;32.30;41.80
16106;DHT22;8157;51.480;6.624;2023-05-29T10:10:38;32.50;42.00
16106;DHT22;8157;51.480;6.624;2023-05-29T10:13:06;32.70;42.00
16106;DHT22;8157;51.480;6.624;2023-05-29T10:15:36;33.00;41.90
16106;DHT22;8157;51.480;6.624;2023-05-29T10:18:09;33.10;41.90
16106;DHT22;8157;51.480;6.624;2023-05-29T10:20:40;33.30;41.10
16106;DHT22;8157;51.480;6.624;2023-05-29T10:23:09;33.30;40.70
16106;DHT22;8157;51.480;6.624;2023-05-29T10:25:39;33.40;40.40
16106;DHT22;8157;51.480;6.624;2023-05-29T10:28:07;33.50;40.90
16106;DHT22;8157;51.480;6.624;2023-05-29T10:30:39;33.40;40.20
16106;DHT22;8157;51.480;6.624;2023-05-29T10:33:27;33.50;39.90
16106;DHT22;8157;51.480;6.624;2023-05-29T10:36:07;33.40;39.40
16106;DHT22;8157;51.480;6.624;2023-05-29T10:38:37;33.40;40.10
16106;DHT22;8157;51.480;6.624;2023-05-29T10:41:29;33.40;40.20
16106;DHT22;8157;51.480;6.624;2023-05-29T10:43:58;33.30;39.80
16106;DHT22;8157;51.480;6.624;2023-05-29T10:47:00;33.50;39.80
16106;DHT22;8157;51.480;6.624;2023-05-29T10:49:29;33.50;39.20
16106;DHT22;8157;51.480;6.624;2023-05-29T10:51:58;33.50;39.80
16106;DHT22;8157;51.480;6.624;2023-05-29T10:54:26;33.50;39.50
16106;DHT22;8157;51.480;6.624;2023-05-29T10:56:56;33.60;39.50
16106;DHT22;8157;51.480;6.624;2023-05-29T10:59:23;33.60;39.30
16106;DHT22;8157;51.480;6.624;2023-05-29T11:01:53;33.60;39.50
16106;DHT22;8157;51.480;6.624;2023-05-29T11:04:30;33.50;38.90
16106;DHT22;8157;51.480;6.624;2023-05-29T11:07:01;33.50;38.20
16106;DHT22;8157;51.480;6.624;2023-05-29T11:09:33;33.40;38.50
16106;DHT22;8157;51.480;6.624;2023-05-29T11:12:12;33.30;38.70
16106;DHT22;8157;51.480;6.624;2023-05-29T11:14:47;33.20;37.90
16106;DHT22;8157;51.480;6.624;2023-05-29T11:17:43;33.10;38.70
16106;DHT22;8157;51.480;6.624;2023-05-29T11:20:20;33.00;38.40
16106;DHT22;8157;51.480;6.624;2023-05-29T11:23:02;32.90;38.70
16106;DHT22;8157;51.480;6.624;2023-05-29T11:25:35;32.80;38.10
16106;DHT22;8157;51.480;6.624;2023-05-29T11:28:03;32.70;39.10
16106;DHT22;8157;51.480;6.624;2023-05-29T11:30:44;32.50;39.60
16106;DHT22;8157;51.480;6.624;2023-05-29T11:33:23;32.50;39.20
16106;DHT22;8157;51.480;6.624;2023-05-29T11:35:57;32.50;38.70
16106;DHT22;8157;51.480;6.624;2023-05-29T11:38:25;32.30;38.70
16106;DHT22;8157;51.480;6.624;2023-05-29T11:40:57;32.30;38.40
16106;DHT22;8157;51.480;6.624;2023-05-29T11:43:25;32.20;38.30
16106;DHT22;8157;51.480;6.624;2023-05-29T11:45:52;32.10;38.40
16106;DHT22;8157;51.480;6.624;2023-05-29T11:48:19;31.80;38.40
16106;DHT22;8157;51.480;6.624;2023-05-29T11:50:47;31.80;38.60
16106;DHT22;8157;51.480;6.624;2023-05-29T11:53:15;31.60;39.60
16106;DHT22;8157;51.480;6.624;2023-05-29T11:55:43;31.60;38.90
16106;DHT22;8157;51.480;6.624;2023-05-29T11:58:10;31.50;39.20
16106;DHT22;8157;51.480;6.624;2023-05-29T12:00:38;31.70;39.20
16106;DHT22;8157;51.480;6.624;2023-05-29T12:03:08;31.70;39.30
16106;DHT22;8157;51.480;6.624;2023-05-29T12:05:45;31.80;39.70
16106;DHT22;8157;51.480;6.624;2023-05-29T12:08:14;31.90;39.60
16106;DHT22;8157;51.480;6.624;2023-05-29T12:10:48;32.00;39.00
16106;DHT22;8157;51.480;6.624;2023-05-29T12:13:18;31.90;38.90
16106;DHT22;8157;51.480;6.624;2023-05-29T12:15:45;31.90;40.10
16106;DHT22;8157;51.480;6.624;2023-05-29T12:18:14;32.00;39.40
16106;DHT22;8157;51.480;6.624;2023-05-29T12:20:42;32.00;39.10
16106;DHT22;8157;51.480;6.624;2023-05-29T12:23:09;32.10;38.80
16106;DHT22;8157;51.480;6.624;2023-05-29T12:25:38;32.00;38.80
16106;DHT22;8157;51.480;6.624;2023-05-29T12:28:07;31.90;39.10
16106;DHT22;8157;51.480;6.624;2023-05-29T12:30:37;31.90;39.20
16106;DHT22;8157;51.480;6.624;2023-05-29T12:33:06;31.90;39.30
16106;DHT22;8157;51.480;6.624;2023-05-29T12:35:34;31.90;38.70
16106;DHT22;8157;51.480;6.624;2023-05-29T12:38:03;31.80;38.60
16106;DHT22;8157;51.480;6.624;2023-05-29T12:40:32;31.60;38.00
16106;DHT22;8157;51.480;6.624;2023-05-29T12:43:00;31.50;38.10
16106;DHT22;8157;51.480;6.624;2023-05-29T12:45:30;31.40;38.30
16106;DHT22;8157;51.480;6.624;2023-05-29T12:47:59;31.30;38.20
16106;DHT22;8157;51.480;6.624;2023-05-29T12:50:28;31.10;38.00
16106;DHT22;8157;51.480;6.624;2023-05-29T12:52:59;30.90;38.40
16106;DHT22;8157;51.480;6.624;2023-05-29T12:55:27;30.80;38.30
16106;DHT22;8157;51.480;6.624;2023-05-29T12:57:54;30.70;38.70
16106;DHT22;8157;51.480;6.624;2023-05-29T13:00:22;30.60;38.20
16106;DHT22;8157;51.480;6.624;2023-05-29T13:02:51;30.30;38.00
16106;DHT22;8157;51.480;6.624;2023-05-29T13:05:19;30.20;38.40
16106;DHT22;8157;51.480;6.624;2023-05-29T13:07:49;30.10;38.40
16106;DHT22;8157;51.480;6.624;2023-05-29T13:10:17;29.90;38.40
16106;DHT22;8157;51.480;6.624;2023-05-29T13:12:45;29.80;39.10
16106;DHT22;8157;51.480;6.624;2023-05-29T13:15:14;29.60;38.60
16106;DHT22;8157;51.480;6.624;2023-05-29T13:17:41;29.60;38.50
16106;DHT22;8157;51.480;6.624;2023-05-29T13:20:12;29.40;38.60
16106;DHT22;8157;51.480;6.624;2023-05-29T13:22:40;29.30;38.60
16106;DHT22;8157;51.480;6.624;2023-05-29T13:25:09;29.20;38.80
16106;DHT22;8157;51.480;6.624;2023-05-29T13:27:38;29.10;39.10
16106;DHT22;8157;51.480;6.624;2023-05-29T13:30:07;29.00;39.40
16106;DHT22;8157;51.480;6.624;2023-05-29T13:32:35;29.00;39.40
16106;DHT22;8157;51.480;6.624;2023-05-29T13:35:03;28.90;39.00
16106;DHT22;8157;51.480;6.624;2023-05-29T13:37:32;28.80;39.10
16106;DHT22;8157;51.480;6.624;2023-05-29T13:40:00;28.70;39.20
16106;DHT22;8157;51.480;6.624;2023-05-29T13:42:26;28.60;39.30
16106;DHT22;8157;51.480;6.624;2023-05-29T13:44:54;28.50;39.20
16106;DHT22;8157;51.480;6.624;2023-05-29T13:47:21;28.30;39.40
16106;DHT22;8157;51.480;6.624;2023-05-29T13:49:48;28.20;39.40
16106;DHT22;8157;51.480;6.624;2023-05-29T13:52:16;28.30;39.50
16106;DHT22;8157;51.480;6.624;2023-05-29T13:54:44;27.90;39.70
16106;DHT22;8157;51.480;6.624;2023-05-29T13:57:12;27.80;40.00
16106;DHT22;8157;51.480;6.624;2023-05-29T13:59:39;27.70;40.10
16106;DHT22;8157;51.480;6.624;2023-05-29T14:02:06;27.60;40.30
16106;DHT22;8157;51.480;6.624;2023-05-29T14:04:34;27.60;40.30
16106;DHT22;8157;51.480;6.624;2023-05-29T14:07:01;27.50;40.20
16106;DHT22;8157;51.480;6.624;2023-05-29T14:09:28;27.50;40.20
16106;DHT22;8157;51.480;6.624;2023-05-29T14:11:58;27.30;40.00
16106;DHT22;8157;51.480;6.624;2023-05-29T14:14:26;27.30;40.30
16106;DHT22;8157;51.480;6.624;2023-05-29T14:16:53;27.30;40.60
16106;DHT22;8157;51.480;6.624;2023-05-29T14:19:21;27.20;40.40
16106;DHT22;8157;51.480;6.624;2023-05-29T14:21:49;27.20;40.40
16106;DHT22;8157;51.480;6.624;2023-05-29T14:24:16;27.20;40.60
16106;DHT22;8157;51.480;6.624;2023-05-29T14:26:43;27.00;40.40
16106;DHT22;8157;51.480;6.624;2023-05-29T14:29:14;27.00;40.30
16106;DHT22;8157;51.480;6.624;2023-05-29T14:31:43;26.80;40.10
16106;DHT22;8157;51.480;6.624;2023-05-29T14:34:11;26.70;40.20
16106;DHT22;8157;51.480;6.624;2023-05-29T14:36:39;26.60;40.30
16106;DHT22;8157;51.480;6.624;2023-05-29T14:39:07;26.50;40.20
16106;DHT22;8157;51.480;6.624;2023-05-29T14:41:34;26.40;40.40
16106;DHT22;8157;51.480;6.624;2023-05-29T14:44:01;26.30;40.10
16106;DHT22;8157;51.480;6.624;2023-05-29T14:46:30;26.20;40.00
16106;DHT22;8157;51.480;6.624;2023-05-29T14:48:58;26.30;40.30
16106;DHT22;8157;51.480;6.624;2023-05-29T14:51:25;26.10;40.30
16106;DHT22;8157;51.480;6.624;2023-05-29T14:53:52;26.10;40.30
16106;DHT22;8157;51.480;6.624;2023-05-29T14:56:19;26.10;40.40
16106;DHT22;8157;51.480;6.624;2023-05-29T14:58:47;26.10;40.10
16106;DHT22;8157;51.480;6.624;2023-05-29T15:01:15;26.20;40.00
16106;DHT22;8157;51.480;6.624;2023-05-29T15:03:44;26.00;40.00
16106;DHT22;8157;51.480;6.624;2023-05-29T15:06:12;25.90;40.20
16106;DHT22;8157;51.480;6.624;2023-05-29T15:08:39;25.80;40.20
16106;DHT22;8157;51.480;6.624;2023-05-29T15:11:09;26.30;40.10
16106;DHT22;8157;51.480;6.624;2023-05-29T15:13:38;25.70;39.50
16106;DHT22;8157;51.480;6.624;2023-05-29T15:16:05;25.80;39.40
16106;DHT22;8157;51.480;6.624;2023-05-29T15:18:33;25.70;39.30
16106;DHT22;8157;51.480;6.624;2023-05-29T15:21:03;25.50;39.40
16106;DHT22;8157;51.480;6.624;2023-05-29T15:23:30;25.40;39.50
16106;DHT22;8157;51.480;6.624;2023-05-29T15:26:00;25.40;39.60
16106;DHT22;8157;51.480;6.624;2023-05-29T15:28:28;25.30;39.90
16106;DHT22;8157;51.480;6.624;2023-05-29T15:30:55;25.30;39.50
16106;DHT22;8157;51.480;6.624;2023-05-29T15:33:22;25.20;39.60
16106;DHT22;8157;51.480;6.624;2023-05-29T15:35:50;25.20;39.60
16106;DHT22;8157;51.480;6.624;2023-05-29T15:38:19;25.10;38.90
16106;DHT22;8157;51.480;6.624;2023-05-29T15:40:47;25.10;38.90
16106;DHT22;8157;51.480;6.624;2023-05-29T15:43:14;25.00;39.50
16106;DHT22;8157;51.480;6.624;2023-05-29T15:45:41;24.90;39.70
16106;DHT22;8157;51.480;6.624;2023-05-29T15:48:09;25.00;39.40
16106;DHT22;8157;51.480;6.624;2023-05-29T15:50:37;24.90;39.10
16106;DHT22;8157;51.480;6.624;2023-05-29T15:53:11;24.80;39.00
16106;DHT22;8157;51.480;6.624;2023-05-29T15:55:39;24.80;38.90
16106;DHT22;8157;51.480;6.624;2023-05-29T15:58:07;24.70;39.50
16106;DHT22;8157;51.480;6.624;2023-05-29T16:00:34;24.70;39.00